Time;durP1;ratioP1;P1;durP2;ratioP2;P2;SDS_P1;SDS_P2;PMS_P1;PMS_P2;Temp;Humidity;BMP_temperature;BMP_pressure;BME280_temperature;BME280_humidity;BME280_pressure;Samples;Min_cycle;Max_cycle;Signal;HPM_P1;HPM_P2
2023/05/08 00:00:47;;;;;;;6.20;5.70;;;;;;;15.58;74.60;96448.66;4968189;28;20245;-73
2023/05/08 00:03:12;;;;;;;9.50;6.10;;;;;;;15.60;74.28;96452.91;4975772;28;20204;-71
2023/05/08 00:05:40;;;;;;;6.60;5.90;;;;;;;15.64;73.91;96446.47;4987725;28;20169;-71
2023/05/08 00:08:05;;;;;;;5.73;5.20;;;;;;;15.50;74.17;96453.59;4987902;28;20246;-72
2023/05/08 00:10:31;;;;;;;7.53;5.30;;;;;;;15.53;74.38;96448.94;4989444;28;20993;-72
2023/05/08 00:12:56;;;;;;;7.30;5.97;;;;;;;15.46;74.33;96453.75;4991703;28;20177;-71
2023/05/08 00:15:22;;;;;;;6.63;5.93;;;;;;;15.43;75.11;96443.38;4990478;28;20180;-72
2023/05/08 00:17:47;;;;;;;6.10;5.50;;;;;;;15.56;74.25;96448.72;4991712;28;20165;-71
2023/05/08 00:20:13;;;;;;;7.00;6.40;;;;;;;15.58;74.19;96452.13;4990457;28;20651;-72
2023/05/08 00:22:38;;;;;;;6.87;6.27;;;;;;;15.39;74.29;96441.88;4991736;28;20283;-71
2023/05/08 00:25:04;;;;;;;6.13;5.53;;;;;;;15.37;74.26;96443.75;4991578;28;20168;-72
2023/05/08 00:27:32;;;;;;;6.17;5.63;;;;;;;15.08;75.20;96452.66;4993466;28;20343;-73
2023/05/08 00:29:58;;;;;;;8.90;5.70;;;;;;;15.07;76.30;96451.81;5006523;28;20166;-72
2023/05/08 00:32:23;;;;;;;7.43;5.73;;;;;;;14.73;77.65;96448.53;5006712;28;20510;-73
2023/05/08 00:34:49;;;;;;;6.97;6.37;;;;;;;14.63;77.69;96449.19;4999093;28;20169;-72
2023/05/08 00:37:15;;;;;;;6.40;5.80;;;;;;;14.70;77.79;96461.09;4990776;28;20227;-71
2023/05/08 00:39:40;;;;;;;6.23;5.63;;;;;;;14.83;77.36;96451.47;4989899;28;20192;-72
2023/05/08 00:42:06;;;;;;;6.30;5.40;;;;;;;14.96;77.00;96464.81;4990310;28;20208;-72
2023/05/08 00:44:31;;;;;;;6.77;6.17;;;;;;;14.71;77.00;96457.50;4990943;28;20215;-71
2023/05/08 00:46:57;;;;;;;6.57;5.90;;;;;;;14.93;76.34;96457.06;4990428;28;20536;-72
2023/05/08 00:49:23;;;;;;;6.60;6.00;;;;;;;14.84;77.40;96461.13;4990863;28;20183;-71
2023/05/08 00:51:52;;;;;;;8.47;7.47;;;;;;;14.79;76.17;96457.91;4990729;28;20208;-72
2023/05/08 00:54:19;;;;;;;6.73;6.13;;;;;;;14.57;78.16;96464.47;4990801;28;20419;-71
2023/05/08 00:56:44;;;;;;;6.63;6.10;;;;;;;14.93;76.98;96460.56;4990206;28;20419;-71
2023/05/08 00:59:14;;;;;;;7.07;6.47;;;;;;;14.85;77.26;96461.97;4990593;28;20486;-71
2023/05/08 01:01:40;;;;;;;7.30;6.60;;;;;;;14.74;77.83;96455.53;4990419;28;20185;-72
2023/05/08 01:04:06;;;;;;;8.00;6.87;;;;;;;14.66;78.28;96464.84;4975494;28;20429;-71
2023/05/08 01:06:33;;;;;;;7.97;7.17;;;;;;;14.74;78.12;96465.22;4970739;28;20502;-71
2023/05/08 01:08:59;;;;;;;8.67;7.70;;;;;;;14.91;77.66;96467.72;4970953;28;20914;-72
2023/05/08 01:11:51;;;;;;;8.77;7.93;;;;;;;14.88;77.70;96472.34;4970983;28;20464;-71
2023/05/08 01:14:21;;;;;;;10.37;7.83;;;;;;;14.95;77.04;96469.25;4960562;28;20452;-73
2023/05/08 01:17:02;;;;;;;7.40;6.77;;;;;;;14.59;78.16;96473.13;4972698;28;20409;-71
2023/05/08 01:19:34;;;;;;;7.83;7.13;;;;;;;14.60;78.64;96466.91;5003366;28;20510;-72
2023/05/08 01:22:24;;;;;;;10.43;6.47;;;;;;;14.59;78.65;96472.28;5009553;28;20436;-72
2023/05/08 01:25:02;;;;;;;7.10;6.50;;;;;;;14.61;78.20;96476.53;5007274;28;20447;-72
2023/05/08 01:27:46;;;;;;;7.13;6.50;;;;;;;14.50;78.67;96473.63;4994891;28;20953;-71
2023/05/08 01:30:32;;;;;;;7.93;6.97;;;;;;;14.72;77.99;96481.19;4990581;28;20450;-72
2023/05/08 01:33:06;;;;;;;8.30;7.60;;;;;;;14.41;78.92;96482.09;4990067;28;20451;-72
2023/05/08 01:35:42;;;;;;;8.07;7.40;;;;;;;14.63;78.11;96480.88;4988703;28;20439;-72
2023/05/08 01:38:11;;;;;;;8.97;8.07;;;;;;;14.50;78.59;96485.97;4989960;28;20499;-72
2023/05/08 01:41:01;;;;;;;15.37;8.03;;;;;;;14.66;78.77;96478.06;4989808;28;20808;-72
2023/05/08 01:43:38;;;;;;;10.10;9.10;;;;;;;14.56;78.43;96483.88;4989763;28;20775;-72
2023/05/08 01:46:18;;;;;;;8.93;8.03;;;;;;;14.76;78.54;96481.84;4989335;28;20462;-72
2023/05/08 01:48:50;;;;;;;9.50;8.70;;;;;;;14.95;78.02;96481.59;4989755;28;20422;-72
2023/05/08 01:51:22;;;;;;;9.10;8.20;;;;;;;15.06;77.52;96480.97;4989432;28;21078;-71
2023/05/08 01:53:51;;;;;;;8.90;8.10;;;;;;;15.08;76.57;96473.78;4989272;28;20522;-72
2023/05/08 01:56:21;;;;;;;9.03;8.23;;;;;;;15.04;76.54;96479.25;4989071;28;20416;-72
2023/05/08 01:58:49;;;;;;;8.07;7.37;;;;;;;15.13;76.20;96475.19;4989215;28;21112;-73
2023/05/08 02:01:19;;;;;;;6.93;6.33;;;;;;;15.13;75.89;96471.72;4989224;28;20435;-71
2023/05/08 02:03:47;;;;;;;11.43;6.80;;;;;;;15.17;75.47;96478.53;4989069;28;20416;-72
2023/05/08 02:06:16;;;;;;;7.13;6.40;;;;;;;15.03;75.84;96476.72;4988985;28;20427;-72
2023/05/08 02:08:43;;;;;;;11.70;6.93;;;;;;;15.04;75.88;96484.53;4989267;28;20412;-72
2023/05/08 02:11:11;;;;;;;12.13;7.30;;;;;;;15.13;75.76;96487.56;4989257;28;20464;-71
2023/05/08 02:13:38;;;;;;;8.70;7.90;;;;;;;14.39;77.76;96483.97;4989452;28;20767;-72
2023/05/08 02:16:07;;;;;;;8.17;7.43;;;;;;;14.19;79.27;96485.94;4999930;28;20416;-71
2023/05/08 02:18:33;;;;;;;10.23;8.70;;;;;;;14.43;78.88;96482.84;5006492;28;20404;-72
2023/05/08 02:21:02;;;;;;;9.80;8.80;;;;;;;14.75;77.68;96480.16;5004258;28;21040;-72
2023/05/08 02:23:28;;;;;;;12.73;8.87;;;;;;;14.94;77.67;96478.09;5002684;28;20418;-72
2023/05/08 02:25:55;;;;;;;9.87;8.23;;;;;;;15.03;77.54;96474.91;4993328;28;20420;-72
2023/05/08 02:28:22;;;;;;;9.73;8.90;;;;;;;15.08;77.41;96477.28;4989956;28;20436;-71
2023/05/08 02:30:49;;;;;;;10.43;8.77;;;;;;;15.15;76.95;96475.97;4989205;28;20523;-73
2023/05/08 02:33:17;;;;;;;10.33;9.33;;;;;;;15.14;76.71;96474.28;4989055;28;20916;-72
2023/05/08 02:35:45;;;;;;;10.90;9.77;;;;;;;15.14;76.83;96481.34;4988911;28;20471;-71
2023/05/08 02:38:13;;;;;;;16.00;10.80;;;;;;;15.16;76.22;96476.81;4988765;28;20765;-72
2023/05/08 02:40:42;;;;;;;11.80;10.70;;;;;;;15.03;76.33;96479.34;4988565;28;20427;-73
2023/05/08 02:43:08;;;;;;;12.30;10.27;;;;;;;15.03;76.78;96482.00;4988958;28;20840;-72
2023/05/08 02:46:01;;;;;;;10.87;9.90;;;;;;;15.03;76.29;96474.91;4988683;28;20423;-72
2023/05/08 02:48:43;;;;;;;11.50;10.30;;;;;;;14.75;77.49;96482.78;4988615;28;20179;-72
2023/05/08 02:51:18;;;;;;;12.37;11.00;;;;;;;14.72;77.40;96485.63;4988411;28;20941;-73
2023/05/08 02:53:49;;;;;;;10.63;9.53;;;;;;;15.01;77.24;96476.78;4988637;28;21096;-71
2023/05/08 02:56:27;;;;;;;12.53;11.33;;;;;;;15.08;76.67;96473.78;4988230;28;20904;-72
2023/05/08 02:59:04;;;;;;;12.73;11.47;;;;;;;15.05;76.20;96472.19;4988524;28;20889;-71
2023/05/08 03:01:39;;;;;;;12.83;11.50;;;;;;;15.09;75.94;96478.97;4988362;28;20428;-72
2023/05/08 03:04:09;;;;;;;14.30;11.40;;;;;;;15.13;76.15;96479.66;4988332;28;20404;-73
2023/05/08 03:06:41;;;;;;;13.50;12.17;;;;;;;15.11;76.13;96479.72;4988138;28;20412;-72
2023/05/08 03:09:15;;;;;;;12.97;11.70;;;;;;;15.07;76.66;96470.31;4988675;28;20419;-73
2023/05/08 03:11:43;;;;;;;15.77;11.90;;;;;;;15.15;76.43;96480.41;4986746;28;20478;-72
2023/05/08 03:14:12;;;;;;;11.43;10.50;;;;;;;15.19;75.79;96472.19;4988306;28;20527;-72
2023/05/08 03:16:40;;;;;;;13.60;12.00;;;;;;;15.19;76.02;96474.00;4987943;28;20420;-71
2023/05/08 03:19:33;;;;;;;15.83;12.10;;;;;;;15.13;76.45;96471.72;4988271;28;20416;-71
2023/05/08 03:22:01;;;;;;;13.17;11.07;;;;;;;15.18;76.82;96474.91;4982754;28;20475;-72
2023/05/08 03:24:28;;;;;;;17.87;12.30;;;;;;;15.10;76.72;96479.84;4988155;28;20507;-71
2023/05/08 03:26:55;;;;;;;21.80;12.70;;;;;;;15.04;77.24;96475.75;4987864;28;20901;-72
2023/05/08 03:29:22;;;;;;;15.87;13.03;;;;;;;15.20;76.90;96479.16;4988034;28;20435;-72
2023/05/08 03:31:50;;;;;;;17.10;13.90;;;;;;;15.18;76.92;96481.06;4987963;28;20468;-72
2023/05/08 03:34:17;;;;;;;22.23;13.07;;;;;;;15.08;77.59;96482.56;4987618;28;20923;-70
2023/05/08 03:36:43;;;;;;;22.80;13.63;;;;;;;15.00;77.90;96471.59;4987504;28;20506;-72
2023/05/08 03:39:08;;;;;;;23.17;13.43;;;;;;;15.04;77.56;96484.53;4987832;28;20544;-71
2023/05/08 03:41:34;;;;;;;17.50;13.53;;;;;;;15.12;77.04;96484.09;4987704;28;20243;-71
2023/05/08 03:44:02;;;;;;;16.37;12.27;;;;;;;15.09;77.28;96486.91;4987573;28;20181;-71
2023/05/08 03:46:30;;;;;;;16.03;12.80;;;;;;;15.07;77.23;96478.22;4986077;28;20271;-72
2023/05/08 03:48:59;;;;;;;14.57;12.03;;;;;;;15.10;77.39;96480.69;4987761;28;21134;-72
2023/05/08 03:51:26;;;;;;;13.73;12.43;;;;;;;14.98;77.17;96484.91;4987502;28;20463;-71
2023/05/08 03:53:52;;;;;;;14.50;13.13;;;;;;;14.66;78.58;96488.63;4987754;28;20435;-72
2023/05/08 03:56:17;;;;;;;15.40;13.20;;;;;;;14.79;78.65;96489.59;4987443;28;20409;-73
2023/05/08 03:58:52;;;;;;;17.27;13.87;;;;;;;14.77;78.63;96487.03;4987734;28;20177;-73
2023/05/08 04:01:43;;;;;;;24.90;14.20;;;;;;;14.89;78.23;96481.97;4987952;28;20702;-73
2023/05/08 04:04:26;;;;;;;15.50;14.00;;;;;;;14.53;79.76;96489.31;4972461;28;20435;-71
2023/05/08 04:07:23;;;;;;;14.40;13.03;;;;;;;14.53;79.59;96491.09;4968549;28;20464;-72
2023/05/08 04:10:06;;;;;;;15.47;13.30;;;;;;;14.34;81.01;96488.69;4966644;28;20432;-73
2023/05/08 04:12:34;;;;;;;16.30;14.63;;;;;;;14.24;80.61;96496.25;4969538;28;20456;-72
2023/05/08 04:15:21;;;;;;;15.30;13.70;;;;;;;14.56;80.17;96496.22;4967108;28;20467;-72
2023/05/08 04:17:52;;;;;;;14.80;13.20;;;;;;;14.71;79.54;96497.97;4967991;28;20595;-73
2023/05/08 04:20:20;;;;;;;15.10;13.60;;;;;;;14.65;79.69;96500.97;4968320;28;20448;-72
2023/05/08 04:22:48;;;;;;;17.37;14.27;;;;;;;14.68;79.61;96506.06;4968003;28;20460;-72
2023/05/08 04:25:16;;;;;;;18.43;14.80;;;;;;;14.86;78.99;96505.91;4967973;28;20868;-71
2023/05/08 04:27:43;;;;;;;17.50;15.90;;;;;;;14.82;78.91;96503.47;4968054;28;20417;-71
2023/05/08 04:30:09;;;;;;;16.17;14.60;;;;;;;14.52;80.28;96511.34;4968211;28;20443;-72
2023/05/08 04:32:37;;;;;;;16.60;14.57;;;;;;;14.50;80.45;96504.47;4968005;28;21021;-73
2023/05/08 04:35:03;;;;;;;18.80;17.10;;;;;;;14.57;80.40;96511.13;4968106;28;20452;-72
2023/05/08 04:37:30;;;;;;;20.47;17.20;;;;;;;14.46;80.99;96513.53;4967583;28;20508;-72
2023/05/08 04:39:57;;;;;;;19.17;17.00;;;;;;;14.45;81.05;96520.56;4966242;28;20425;-72
2023/05/08 04:42:23;;;;;;;20.60;18.40;;;;;;;14.45;81.14;96525.84;4989957;28;20464;-72
2023/05/08 04:44:48;;;;;;;18.77;16.90;;;;;;;14.30;81.39;96526.75;4986947;28;20451;-71
2023/05/08 04:47:14;;;;;;;20.97;18.80;;;;;;;14.42;81.37;96528.69;4986514;28;20525;-72
2023/05/08 04:49:40;;;;;;;20.77;18.60;;;;;;;14.48;81.35;96533.63;4986229;28;20203;-73
2023/05/08 04:52:06;;;;;;;19.57;17.57;;;;;;;14.18;81.93;96534.41;4986775;28;20266;-71
2023/05/08 04:54:32;;;;;;;21.20;19.00;;;;;;;14.02;83.25;96532.72;4986915;28;20188;-72
2023/05/08 04:56:58;;;;;;;30.43;19.90;;;;;;;14.28;81.86;96529.47;4988982;28;20416;-71
2023/05/08 04:59:26;;;;;;;29.20;20.70;;;;;;;14.40;81.37;96538.47;4990515;28;20419;-73
2023/05/08 05:01:52;;;;;;;19.73;17.70;;;;;;;14.29;81.93;96540.84;4990473;28;20192;-71
2023/05/08 05:04:17;;;;;;;23.77;17.43;;;;;;;14.18;82.08;96539.69;4990531;28;20428;-73
2023/05/08 05:06:43;;;;;;;19.00;16.40;;;;;;;14.45;81.42;96541.69;4990105;28;20545;-72
2023/05/08 05:09:09;;;;;;;19.90;17.70;;;;;;;14.46;81.27;96548.69;4990571;28;20558;-72
2023/05/08 05:11:34;;;;;;;20.20;17.70;;;;;;;14.50;81.42;96541.44;4990239;28;20209;-72
2023/05/08 05:14:00;;;;;;;26.00;17.60;;;;;;;14.43;81.80;96548.84;4988538;28;21003;-72
2023/05/08 05:16:26;;;;;;;19.97;17.90;;;;;;;14.27;81.30;96545.38;4984440;28;20176;-72
2023/05/08 05:18:52;;;;;;;22.60;16.90;;;;;;;14.63;80.44;96541.63;4984425;28;20187;-72
2023/05/08 05:21:17;;;;;;;17.50;15.40;;;;;;;14.39;81.18;96544.69;4989948;28;20288;-72
2023/05/08 05:23:43;;;;;;;18.60;16.40;;;;;;;14.55;80.60;96545.56;4991194;28;20416;-71
2023/05/08 05:26:08;;;;;;;22.00;16.97;;;;;;;14.36;81.34;96540.44;4989630;28;20184;-73
2023/05/08 05:28:34;;;;;;;18.00;16.10;;;;;;;14.31;81.36;96546.91;4987678;28;20188;-72
2023/05/08 05:30:59;;;;;;;18.87;16.87;;;;;;;14.07;81.68;96546.50;4989568;28;20221;-72
2023/05/08 05:33:25;;;;;;;21.33;18.13;;;;;;;13.94;83.31;96549.81;4989872;28;20988;-72
2023/05/08 05:35:50;;;;;;;21.80;17.70;;;;;;;14.14;83.06;96546.06;4989646;28;20540;-73
2023/05/08 05:38:16;;;;;;;21.37;18.60;;;;;;;14.18;82.70;96542.31;4984230;28;20658;-73
2023/05/08 05:40:41;;;;;;;20.67;18.53;;;;;;;14.41;81.92;96545.47;4983984;28;20720;-73
2023/05/08 05:43:07;;;;;;;21.20;19.00;;;;;;;14.46;81.84;96551.34;4982000;28;20192;-72
2023/05/08 05:45:32;;;;;;;21.27;19.03;;;;;;;14.59;81.08;96548.88;4982285;28;20199;-71
2023/05/08 05:47:57;;;;;;;21.20;18.37;;;;;;;14.60;81.14;96548.78;4983276;28;20184;-69
2023/05/08 05:50:23;;;;;;;23.30;19.90;;;;;;;14.52;81.38;96547.47;4990315;28;20185;-70
2023/05/08 05:52:48;;;;;;;15.90;10.27;;;;;;;14.99;80.82;96539.47;4985209;28;20204;-69
2023/05/08 05:55:14;;;;;;;19.40;17.37;;;;;;;14.51;79.89;96553.72;4985119;28;20188;-71
2023/05/08 05:57:39;;;;;;;16.20;13.50;;;;;;;14.81;81.33;96551.09;4985963;28;20181;-69
2023/05/08 06:00:06;;;;;;;17.17;12.90;;;;;;;15.25;79.02;96543.19;4985667;28;20184;-70
2023/05/08 06:02:34;;;;;;;20.57;16.17;;;;;;;14.97;78.42;96554.53;4987438;28;20212;-70
2023/05/08 06:04:59;;;;;;;28.53;16.73;;;;;;;14.66;79.75;96552.84;4987948;28;20432;-69
2023/05/08 06:07:25;;;;;;;17.80;15.90;;;;;;;14.37;79.72;96555.34;5001950;28;20488;-72
2023/05/08 06:09:52;;;;;;;18.80;16.73;;;;;;;14.33;79.45;96550.31;5001189;28;20732;-71
2023/05/08 06:12:17;;;;;;;26.70;16.70;;;;;;;14.30;80.06;96564.53;4988870;28;20240;-69
2023/05/08 06:14:43;;;;;;;18.60;15.93;;;;;;;14.26;80.22;96565.66;4988704;28;20626;-69
2023/05/08 06:17:08;;;;;;;18.30;16.33;;;;;;;14.29;80.69;96570.78;4987636;28;20177;-70
2023/05/08 06:19:34;;;;;;;18.27;16.40;;;;;;;14.15;80.02;96570.69;4990561;28;20173;-71
2023/05/08 06:21:59;;;;;;;24.50;18.63;;;;;;;13.92;81.83;96561.41;4990287;28;20236;-71
2023/05/08 06:24:25;;;;;;;23.80;19.73;;;;;;;14.12;81.51;96566.41;4988421;28;20665;-71
2023/05/08 06:26:50;;;;;;;18.33;16.40;;;;;;;14.01;80.32;96566.16;4989893;28;20267;-71
2023/05/08 06:29:16;;;;;;;19.70;17.60;;;;;;;13.75;81.74;96575.50;4989855;28;20539;-70
2023/05/08 06:31:41;;;;;;;26.13;18.60;;;;;;;13.79;81.25;96573.53;4989261;28;20232;-70
2023/05/08 06:34:08;;;;;;;18.97;16.97;;;;;;;13.77;80.34;96582.41;4990600;28;20710;-69
2023/05/08 06:36:33;;;;;;;20.93;18.23;;;;;;;13.71;80.66;96577.44;4988187;28;20272;-70
2023/05/08 06:38:58;;;;;;;18.17;16.27;;;;;;;13.46;80.53;96579.66;4988489;28;20424;-69
2023/05/08 06:41:25;;;;;;;21.53;17.57;;;;;;;13.66;79.63;96587.38;4990862;28;20201;-70
2023/05/08 06:43:50;;;;;;;19.97;17.47;;;;;;;13.61;80.35;96588.56;4992747;28;20185;-69
2023/05/08 06:46:16;;;;;;;19.23;17.07;;;;;;;13.61;80.88;96589.41;5012346;28;20459;-69
2023/05/08 06:48:41;;;;;;;18.70;15.90;;;;;;;13.50;80.90;96586.50;5014083;28;20307;-71
2023/05/08 06:51:06;;;;;;;18.00;16.20;;;;;;;13.70;80.02;96593.34;5014076;28;20236;-71
2023/05/08 06:53:32;;;;;;;20.10;16.93;;;;;;;13.82;79.20;96589.19;5008411;28;20189;-71
2023/05/08 06:55:57;;;;;;;16.77;14.60;;;;;;;13.57;79.66;96589.66;5004522;28;20181;-68
2023/05/08 06:58:23;;;;;;;17.47;15.77;;;;;;;13.50;80.62;96589.13;5004129;28;20638;-68
2023/05/08 07:00:48;;;;;;;18.03;14.60;;;;;;;13.71;79.32;96592.41;4996748;28;20173;-70
2023/05/08 07:03:14;;;;;;;18.57;16.73;;;;;;;13.60;79.68;96594.75;4989931;28;20185;-70
2023/05/08 07:05:40;;;;;;;18.30;16.40;;;;;;;13.44;80.07;96597.34;4985593;28;20251;-70
2023/05/08 07:08:05;;;;;;;21.30;16.93;;;;;;;13.47;80.80;96590.13;4985899;28;20813;-70
2023/05/08 07:10:30;;;;;;;22.07;18.90;;;;;;;13.48;80.98;96597.09;4987324;28;20223;-70
2023/05/08 07:12:56;;;;;;;18.20;16.37;;;;;;;13.36;80.31;96589.00;4989358;28;20321;-70
2023/05/08 07:15:22;;;;;;;18.20;16.40;;;;;;;13.48;80.37;96591.84;4990711;28;20173;-72
2023/05/08 07:17:47;;;;;;;17.97;16.03;;;;;;;13.68;79.69;96590.81;4991046;28;20628;-70
2023/05/08 07:20:12;;;;;;;19.43;16.90;;;;;;;13.64;79.38;96586.59;4991407;28;20180;-70
2023/05/08 07:22:38;;;;;;;19.00;17.10;;;;;;;13.68;79.53;96589.94;4992020;28;20184;-68
2023/05/08 07:25:04;;;;;;;18.80;16.87;;;;;;;13.75;79.04;96594.81;4990138;28;20227;-71
2023/05/08 07:27:29;;;;;;;18.00;16.10;;;;;;;13.51;79.87;96598.72;4990137;28;20251;-69
2023/05/08 07:29:57;;;;;;;16.67;15.07;;;;;;;13.67;79.83;96589.06;4990101;28;20837;-70
2023/05/08 07:32:22;;;;;;;18.73;16.97;;;;;;;13.64;79.43;96598.94;4989692;28;20768;-70
2023/05/08 07:34:48;;;;;;;18.53;15.20;;;;;;;14.00;78.62;96588.19;4990377;28;20404;-69
2023/05/08 07:37:13;;;;;;;18.13;16.43;;;;;;;14.14;78.08;96587.44;4990756;28;20545;-70
2023/05/08 07:39:39;;;;;;;18.90;16.53;;;;;;;14.19;76.75;96588.88;4990393;28;20184;-70
2023/05/08 07:42:05;;;;;;;20.30;15.87;;;;;;;14.10;77.96;96586.78;4990133;28;20208;-68
2023/05/08 07:44:32;;;;;;;18.70;16.80;;;;;;;14.16;78.63;96588.22;4990481;28;20251;-69
2023/05/08 07:46:58;;;;;;;15.50;13.90;;;;;;;14.26;76.94;96594.69;4988891;28;20187;-70
2023/05/08 07:49:23;;;;;;;18.70;15.20;;;;;;;14.23;77.46;96594.84;4990193;28;20408;-69
2023/05/08 07:51:49;;;;;;;18.37;16.47;;;;;;;14.18;76.95;96595.13;4990287;28;20204;-70
2023/05/08 07:54:14;;;;;;;17.60;15.80;;;;;;;14.34;76.69;96596.91;4990233;28;20175;-71
2023/05/08 07:56:40;;;;;;;17.47;15.60;;;;;;;14.31;76.84;96599.72;4990575;28;20251;-70
2023/05/08 07:59:05;;;;;;;17.93;16.10;;;;;;;14.33;77.27;96598.69;4989972;28;20649;-68
2023/05/08 08:01:30;;;;;;;23.47;18.10;;;;;;;14.49;77.11;96598.69;4989952;28;20220;-69
2023/05/08 08:03:56;;;;;;;18.67;16.47;;;;;;;14.43;76.27;96595.53;4988576;28;20169;-69
2023/05/08 08:06:21;;;;;;;18.30;16.13;;;;;;;14.15;77.41;96602.38;4989717;28;20177;-69
2023/05/08 08:08:47;;;;;;;17.70;16.00;;;;;;;14.14;77.95;96598.84;4990016;28;20184;-71
2023/05/08 08:11:12;;;;;;;21.30;16.20;;;;;;;14.34;77.19;96597.75;4989979;28;20589;-69
2023/05/08 08:13:37;;;;;;;18.00;16.13;;;;;;;14.49;76.31;96601.31;4990094;28;20169;-70
2023/05/08 08:16:03;;;;;;;18.80;16.87;;;;;;;14.29;76.38;96598.94;4989385;28;20191;-69
2023/05/08 08:18:29;;;;;;;22.43;16.23;;;;;;;14.23;77.67;96601.94;4989773;28;20173;-71
2023/05/08 08:20:55;;;;;;;18.53;16.63;;;;;;;14.27;77.79;96600.81;4989025;28;20213;-72
2023/05/08 08:23:21;;;;;;;22.60;16.60;;;;;;;14.12;77.69;96599.88;4988394;28;20795;-72
2023/05/08 08:25:46;;;;;;;17.10;15.40;;;;;;;13.97;78.12;96599.78;4987859;28;20718;-72
2023/05/08 08:28:12;;;;;;;20.07;17.37;;;;;;;14.28;77.76;96600.72;4988168;28;20228;-71
2023/05/08 08:30:37;;;;;;;20.57;18.67;;;;;;;14.32;76.80;96598.78;4989779;28;20254;-73
2023/05/08 08:33:04;;;;;;;19.80;17.70;;;;;;;14.14;77.23;96609.41;4991890;28;20228;-70
2023/05/08 08:35:31;;;;;;;19.13;17.10;;;;;;;14.40;76.61;96599.19;4991896;28;20169;-72
2023/05/08 08:37:57;;;;;;;20.43;18.13;;;;;;;14.32;76.47;96607.56;4991302;28;20424;-72
2023/05/08 08:40:23;;;;;;;25.00;19.00;;;;;;;14.38;77.28;96606.34;4991534;28;20420;-71
2023/05/08 08:42:49;;;;;;;20.17;18.17;;;;;;;14.53;76.85;96608.16;4991505;28;20207;-70
2023/05/08 08:45:14;;;;;;;32.07;18.60;;;;;;;14.59;76.25;96610.44;4991543;28;20419;-73
2023/05/08 08:47:43;;;;;;;19.77;17.67;;;;;;;14.76;75.61;96600.72;4991150;28;20260;-72
2023/05/08 08:50:12;;;;;;;18.97;16.93;;;;;;;14.47;75.81;96605.84;4991574;28;20646;-70
2023/05/08 08:52:50;;;;;;;20.73;17.57;;;;;;;14.73;75.63;96606.19;4991706;28;20440;-71
2023/05/08 08:55:17;;;;;;;36.87;20.20;;;;;;;14.79;75.11;96611.13;4990242;28;20423;-71
2023/05/08 08:58:02;;;;;;;25.80;18.50;;;;;;;14.72;75.15;96607.13;4991210;28;20511;-73
2023/05/08 09:00:32;;;;;;;19.90;17.20;;;;;;;14.81;75.44;96603.94;4991534;28;20423;-71
2023/05/08 09:02:58;;;;;;;18.43;16.63;;;;;;;14.89;74.79;96595.59;4991140;28;20443;-72
2023/05/08 09:05:25;;;;;;;20.47;18.37;;;;;;;14.54;75.97;96604.59;4990901;28;20817;-71
2023/05/08 09:07:54;;;;;;;24.93;18.97;;;;;;;14.81;75.51;96606.59;4990635;28;20185;-72
2023/05/08 09:10:20;;;;;;;21.30;19.10;;;;;;;14.74;75.51;96607.88;4991040;28;20835;-72
2023/05/08 09:12:47;;;;;;;21.17;18.93;;;;;;;14.60;76.75;96603.41;4990666;28;20475;-70
2023/05/08 09:15:12;;;;;;;21.60;18.87;;;;;;;14.87;75.36;96608.03;4990622;28;20466;-70
2023/05/08 09:17:38;;;;;;;21.77;19.37;;;;;;;14.76;75.44;96606.00;4990473;28;20466;-70
2023/05/08 09:20:04;;;;;;;20.73;17.97;;;;;;;14.91;75.27;96610.41;4991434;28;20173;-73
2023/05/08 09:22:30;;;;;;;20.67;18.50;;;;;;;14.72;76.37;96607.13;4993565;28;20991;-72
2023/05/08 09:24:59;;;;;;;20.60;18.40;;;;;;;14.78;75.82;96612.06;4990791;28;20416;-71
2023/05/08 09:27:27;;;;;;;20.47;18.47;;;;;;;14.75;75.98;96610.44;4990305;28;20527;-72
2023/05/08 09:30:10;;;;;;;25.87;17.87;;;;;;;14.81;75.47;96614.50;4988844;28;20408;-71
2023/05/08 09:32:44;;;;;;;19.47;17.43;;;;;;;15.06;74.82;96610.47;4990457;28;20466;-72
2023/05/08 09:35:11;;;;;;;20.77;17.70;;;;;;;15.14;74.55;96602.91;4990513;28;20501;-72
2023/05/08 09:37:41;;;;;;;22.90;18.60;;;;;;;14.88;75.47;96607.09;4990047;28;21008;-69
2023/05/08 09:40:19;;;;;;;21.77;19.50;;;;;;;14.88;75.52;96609.72;4990393;28;20523;-71
2023/05/08 09:42:46;;;;;;;21.17;18.97;;;;;;;14.82;76.35;96606.50;4989816;28;20462;-71
2023/05/08 09:45:26;;;;;;;21.83;17.60;;;;;;;15.00;75.79;96609.00;4990624;28;20519;-71
2023/05/08 09:47:52;;;;;;;19.80;17.70;;;;;;;15.09;74.90;96608.47;4990570;28;20431;-75
2023/05/08 09:50:17;;;;;;;21.20;19.20;;;;;;;15.12;74.70;96615.38;4990423;28;20901;-72
2023/05/08 09:52:47;;;;;;;21.00;18.80;;;;;;;15.07;74.67;96617.44;4990637;28;20189;-72
2023/05/08 09:55:12;;;;;;;22.10;18.97;;;;;;;15.00;74.87;96615.19;4991216;28;20180;-71
2023/05/08 09:57:40;;;;;;;21.27;19.17;;;;;;;14.98;74.75;96606.47;4990073;28;20435;-72
2023/05/08 10:00:11;;;;;;;20.27;18.17;;;;;;;14.95;75.32;96617.25;4990124;28;20246;-72
2023/05/08 10:02:38;;;;;;;22.70;18.77;;;;;;;14.95;75.44;96617.25;4987335;28;20441;-71
2023/05/08 10:05:22;;;;;;;21.33;19.30;;;;;;;14.82;75.71;96630.28;4970465;28;20453;-72
2023/05/08 10:07:48;;;;;;;20.93;18.57;;;;;;;14.89;75.61;96628.16;4970017;28;20409;-72
2023/05/08 10:10:13;;;;;;;19.90;17.80;;;;;;;15.10;75.13;96630.50;4970355;28;20863;-71
2023/05/08 10:12:40;;;;;;;28.50;18.10;;;;;;;15.09;75.08;96634.91;4970133;28;20713;-70
2023/05/08 10:15:06;;;;;;;21.13;17.53;;;;;;;14.95;75.85;96625.16;4969967;28;20259;-69
2023/05/08 10:17:42;;;;;;;21.43;19.37;;;;;;;14.79;76.39;96633.13;4970032;28;20949;-70
2023/05/08 10:20:12;;;;;;;21.13;18.87;;;;;;;14.80;75.83;96629.50;4970015;28;20451;-72
2023/05/08 10:22:42;;;;;;;21.47;19.23;;;;;;;14.84;76.06;96635.50;4970049;28;20429;-70
2023/05/08 10:25:15;;;;;;;20.60;17.60;;;;;;;14.77;76.42;96631.50;4969994;28;20416;-71
2023/05/08 10:27:50;;;;;;;19.90;17.97;;;;;;;14.73;76.13;96628.16;4969619;28;20536;-72
2023/05/08 10:30:16;;;;;;;21.00;18.00;;;;;;;14.67;77.00;96631.16;4969776;28;20531;-73
2023/05/08 10:32:51;;;;;;;21.37;19.20;;;;;;;14.87;76.22;96624.75;4984847;28;20441;-73
2023/05/08 10:35:17;;;;;;;22.67;19.87;;;;;;;14.66;77.51;96633.88;4970273;28;20408;-72
2023/05/08 10:37:44;;;;;;;24.53;18.90;;;;;;;14.94;76.14;96626.09;4969711;28;20471;-70
2023/05/08 10:40:12;;;;;;;19.97;18.17;;;;;;;14.77;77.05;96629.69;4969004;28;20539;-70
2023/05/08 10:42:37;;;;;;;40.83;21.80;;;;;;;14.72;77.34;96621.19;4969843;28;20425;-72
2023/05/08 10:45:07;;;;;;;20.10;17.57;;;;;;;15.03;76.21;96622.06;4970095;28;20444;-72
2023/05/08 10:47:56;;;;;;;21.60;19.33;;;;;;;14.81;77.19;96630.38;4969541;28;20170;-71
2023/05/08 10:50:32;;;;;;;21.33;19.03;;;;;;;14.87;76.19;96627.38;4970052;28;20896;-71
2023/05/08 10:53:13;;;;;;;22.70;19.23;;;;;;;14.83;76.61;96625.84;4969125;28;20968;-76
2023/05/08 10:55:44;;;;;;;20.10;18.00;;;;;;;14.77;77.02;96620.94;4969331;28;20409;-69
2023/05/08 10:58:28;;;;;;;21.27;19.17;;;;;;;14.80;77.20;96618.94;4969975;28;20409;-74
2023/05/08 11:00:59;;;;;;;22.70;20.30;;;;;;;14.81;77.96;96615.38;4969878;28;20413;-73
2023/05/08 11:03:29;;;;;;;26.63;20.80;;;;;;;14.93;77.33;96615.59;4979818;28;20427;-73
2023/05/08 11:05:56;;;;;;;21.27;18.87;;;;;;;14.71;77.22;96621.25;4988979;28;20519;-71
2023/05/08 11:08:26;;;;;;;24.07;19.87;;;;;;;14.76;77.55;96621.84;4990641;28;20396;-73
2023/05/08 11:10:58;;;;;;;35.30;21.97;;;;;;;14.88;77.39;96625.59;4990712;28;20479;-73
2023/05/08 11:13:45;;;;;;;22.80;20.37;;;;;;;14.95;77.48;96614.59;4991930;28;20855;-74
2023/05/08 11:16:11;;;;;;;23.27;19.90;;;;;;;14.87;77.17;96613.31;4991643;28;20496;-72
2023/05/08 11:18:37;;;;;;;24.47;20.10;;;;;;;14.70;77.30;96619.56;4989268;28;20472;-72
2023/05/08 11:21:22;;;;;;;21.93;19.83;;;;;;;14.80;76.60;96629.50;4988377;28;20195;-71
2023/05/08 11:23:56;;;;;;;24.80;19.50;;;;;;;14.69;77.35;96623.13;4988508;28;20216;-72
2023/05/08 11:26:38;;;;;;;27.53;19.83;;;;;;;14.93;77.41;96618.25;4988171;28;20407;-71